Aripeka, Florida
Current Conditions -  °F | °C
As of 10:53 AM on Tuesday 21 Oct 2014 (Local Time) from KBKV Reporting Station
Clear Clear  
Wind Chill: 76°   Ceiling: Unl
Heat Index: 76°   Visibility: 10mi
Dew Point: 68°   Wind: 5mph
Humidity: 76%   Direction: 360°N
Pressure: 30"   Gusts: NA
Location:  28.43°N, 82.66°W
Report Text: KBKV 211453Z AUTO 36004KT 10SM CLR 24/20 A3000 RMK AO2 SLP157 T02440200 51012
Loading
Personal Weather Stations






























Interactive Weather Map
Tropical Storm Tracking
New forecast layout! Learn more

10-Day Weather Forecast

Advertisements
Track Severe Weather on mobile